Time;durP1;ratioP1;P1;durP2;ratioP2;P2;SDS_P1;SDS_P2;PMS_P1;PMS_P2;Temp;Humidity;BMP_temperature;BMP_pressure;BME280_temperature;BME280_humidity;BME280_pressure;Samples;Min_cycle;Max_cycle;Signal;HPM_P1;HPM_P2
2022/04/18 00:01:48;;;;;;;3.90;3.50;;;;;;;5.94;100.00;100029.34;5070742;28;20202;-75
2022/04/18 00:04:15;;;;;;;4.57;3.37;;;;;;;6.42;100.00;100114.97;5071052;28;20203;-75
2022/04/18 00:06:43;;;;;;;3.27;3.07;;;;;;;6.57;100.00;100117.16;5070453;28;20206;-75
2022/04/18 00:09:09;;;;;;;4.47;4.07;;;;;;;6.44;100.00;100074.69;5070182;28;20203;-75
2022/04/18 00:11:36;;;;;;;4.43;4.03;;;;;;;6.86;100.00;100116.34;5070656;28;20202;-75
2022/04/18 00:14:04;;;;;;;3.20;2.93;;;;;;;6.61;100.00;100095.81;5035611;28;20199;-76
2022/04/18 00:16:31;;;;;;;5.73;4.50;;;;;;;6.54;100.00;100106.75;5071093;28;20191;-76
2022/04/18 00:18:58;;;;;;;4.10;3.70;;;;;;;6.60;100.00;100108.66;5070451;28;20213;-76
2022/04/18 00:21:25;;;;;;;7.47;4.17;;;;;;;6.78;100.00;100107.50;5070555;28;20210;-75
2022/04/18 00:23:53;;;;;;;4.30;4.00;;;;;;;6.97;100.00;100108.94;5070509;28;20245;-76
2022/04/18 00:26:19;;;;;;;5.73;4.63;;;;;;;7.00;100.00;100119.34;5070513;28;20607;-75
2022/04/18 00:28:46;;;;;;;5.70;5.20;;;;;;;6.85;100.00;100100.81;5070536;28;20199;-77
2022/04/18 00:31:13;;;;;;;5.47;4.37;;;;;;;6.80;100.00;100110.13;5070608;28;20203;-76
2022/04/18 00:33:40;;;;;;;4.93;4.37;;;;;;;7.01;100.00;100113.34;5032567;28;20214;-76
2022/04/18 00:36:07;;;;;;;5.70;4.47;;;;;;;7.04;100.00;100099.69;5050392;28;20216;-75
2022/04/18 00:38:34;;;;;;;4.70;4.30;;;;;;;7.05;100.00;100104.00;5050455;28;20195;-75
2022/04/18 00:41:02;;;;;;;5.47;4.40;;;;;;;7.04;100.00;100105.72;5055294;28;20252;-75
2022/04/18 00:43:40;;;;;;;5.00;4.60;;;;;;;6.90;100.00;100079.53;5069909;28;20789;-75
2022/04/18 00:46:07;;;;;;;10.17;5.90;;;;;;;6.79;100.00;100118.69;5069682;28;20278;-76
2022/04/18 00:48:34;;;;;;;6.20;5.43;;;;;;;6.66;100.00;100116.56;5070001;28;20195;-75
2022/04/18 00:51:00;;;;;;;7.43;5.87;;;;;;;6.59;100.00;100104.34;5069461;28;20219;-75
2022/04/18 00:53:27;;;;;;;8.33;6.40;;;;;;;6.75;100.00;100101.38;5070202;28;20203;-74
2022/04/18 00:55:54;;;;;;;7.67;5.67;;;;;;;6.77;100.00;100103.19;5070240;28;20198;-75
2022/04/18 00:58:23;;;;;;;3.90;3.50;;;;;;;6.70;100.00;100098.69;5070131;28;20208;-75
2022/04/18 01:00:50;;;;;;;5.80;5.30;;;;;;;6.52;100.00;100087.81;5052714;28;20249;-76
2022/04/18 01:03:19;;;;;;;6.33;4.97;;;;;;;6.54;100.00;100082.69;5050174;28;20322;-75
2022/04/18 01:05:47;;;;;;;8.40;5.43;;;;;;;6.51;100.00;100064.56;4998342;28;20657;-76
2022/04/18 01:08:14;;;;;;;5.43;4.93;;;;;;;6.61;100.00;100082.06;5031305;28;20279;-74
2022/04/18 01:10:41;;;;;;;5.50;4.77;;;;;;;6.57;100.00;100093.09;5050175;28;20226;-74
2022/04/18 01:13:08;;;;;;;7.00;6.30;;;;;;;6.72;100.00;100080.69;5068213;28;20207;-76
2022/04/18 01:15:36;;;;;;;6.20;5.30;;;;;;;6.52;100.00;100068.91;5034602;28;20199;-76
2022/04/18 01:18:03;;;;;;;8.57;6.23;;;;;;;6.07;100.00;99978.22;5069874;28;20210;-76
2022/04/18 01:20:35;;;;;;;6.70;6.00;;;;;;;6.70;100.00;100078.06;5072217;28;20203;-76
2022/04/18 01:23:06;;;;;;;5.43;4.77;;;;;;;6.80;100.00;100068.91;5073351;28;20588;-76
2022/04/18 01:31:02;;;;;;;6.63;5.63;;;;;;;6.68;100.00;100053.06;5073330;28;20210;-76
2022/04/18 01:33:30;;;;;;;7.13;5.80;;;;;;;6.78;100.00;100060.25;5073274;28;20201;-75
2022/04/18 01:35:56;;;;;;;9.63;5.97;;;;;;;6.65;100.00;100073.59;5073357;28;20237;-76
2022/04/18 01:38:25;;;;;;;9.30;6.80;;;;;;;6.70;100.00;100038.56;5073338;28;20268;-74
2022/04/18 01:40:52;;;;;;;8.83;7.17;;;;;;;6.49;100.00;100005.31;5021405;28;20203;-75
2022/04/18 01:43:19;;;;;;;7.30;6.43;;;;;;;6.80;100.00;100053.44;5073084;28;20223;-75
2022/04/18 01:45:46;;;;;;;7.43;6.10;;;;;;;6.69;100.00;100054.84;5073155;28;20195;-75
2022/04/18 01:48:12;;;;;;;7.13;6.00;;;;;;;6.76;100.00;100049.03;5066604;28;20286;-76
2022/04/18 01:50:40;;;;;;;7.50;6.70;;;;;;;6.82;100.00;100047.50;5053100;28;20207;-74
2022/04/18 01:53:07;;;;;;;8.07;6.77;;;;;;;6.90;100.00;100045.16;5052950;28;20695;-75
2022/04/18 01:55:35;;;;;;;8.87;6.47;;;;;;;7.02;100.00;100039.47;5060643;28;21055;-74
2022/04/18 01:58:02;;;;;;;7.17;6.07;;;;;;;6.89;100.00;100045.97;5072524;28;20191;-75
2022/04/18 02:00:28;;;;;;;7.67;5.70;;;;;;;6.75;100.00;100045.56;5072959;28;20209;-75
2022/04/18 02:02:55;;;;;;;9.33;7.53;;;;;;;6.78;100.00;100039.63;5072109;28;20222;-75
2022/04/18 02:05:22;;;;;;;9.60;7.07;;;;;;;6.77;100.00;100038.78;5053834;28;20194;-74
2022/04/18 02:07:49;;;;;;;6.70;5.97;;;;;;;6.70;100.00;100033.41;5072486;28;20201;-74
2022/04/18 02:10:16;;;;;;;7.80;6.17;;;;;;;6.60;100.00;100033.97;5072610;28;20193;-74
2022/04/18 02:12:44;;;;;;;7.40;6.07;;;;;;;6.78;100.00;100034.47;5072922;28;20210;-74
2022/04/18 02:15:11;;;;;;;5.40;4.87;;;;;;;6.27;100.00;100029.53;5072615;28;20207;-75
2022/04/18 02:17:38;;;;;;;4.73;4.33;;;;;;;6.32;100.00;100025.38;5072721;28;20285;-75
2022/04/18 02:20:06;;;;;;;6.50;5.83;;;;;;;6.37;100.00;100031.56;5072671;28;20199;-74
2022/04/18 02:22:33;;;;;;;7.83;5.17;;;;;;;6.35;100.00;100030.63;5037699;28;20269;-74
2022/04/18 02:25:00;;;;;;;8.07;6.30;;;;;;;6.49;100.00;100028.50;5072151;28;20290;-75
2022/04/18 02:27:27;;;;;;;8.10;6.63;;;;;;;6.53;100.00;100026.88;5033427;28;20204;-74
2022/04/18 02:29:55;;;;;;;9.27;6.50;;;;;;;6.65;100.00;100024.66;5061168;28;20268;-74
2022/04/18 02:35:07;;;;;;;8.10;6.33;;;;;;;6.26;100.00;100025.22;5071842;28;22075;-74
2022/04/18 02:37:33;;;;;;;6.00;5.40;;;;;;;5.75;100.00;99933.47;5036568;28;20282;-74
2022/04/18 02:40:00;;;;;;;8.80;6.87;;;;;;;6.46;100.00;100012.91;5071882;28;20202;-74
2022/04/18 02:42:27;;;;;;;7.57;6.70;;;;;;;6.38;100.00;100011.84;5071633;28;20195;-75
2022/04/18 02:44:55;;;;;;;8.23;5.90;;;;;;;6.43;100.00;100007.69;5071731;28;20198;-75
2022/04/18 02:47:23;;;;;;;7.43;6.73;;;;;;;6.52;100.00;100000.25;5071766;28;20199;-75
2022/04/18 02:49:51;;;;;;;8.07;6.77;;;;;;;6.54;100.00;100016.59;5071837;28;20206;-75
2022/04/18 02:52:17;;;;;;;9.10;7.30;;;;;;;6.10;100.00;99999.78;5071176;28;20244;-75
2022/04/18 02:54:44;;;;;;;7.27;6.57;;;;;;;6.28;100.00;99987.50;5070599;28;20202;-75
2022/04/18 02:57:12;;;;;;;8.33;6.20;;;;;;;6.53;100.00;100011.44;5071239;28;20206;-74
2022/04/18 02:59:39;;;;;;;7.07;6.10;;;;;;;6.49;100.00;100013.03;5071360;28;20663;-75
2022/04/18 03:02:07;;;;;;;4.80;4.40;;;;;;;6.34;100.00;100005.72;5071468;28;20248;-75
2022/04/18 03:04:34;;;;;;;7.07;6.17;;;;;;;6.28;100.00;100009.78;5071342;28;20218;-74
2022/04/18 03:07:01;;;;;;;6.30;5.20;;;;;;;6.05;100.00;99975.63;5071723;28;20276;-74
2022/04/18 03:09:29;;;;;;;8.27;7.00;;;;;;;6.26;100.00;99986.59;5070370;28;20699;-75
2022/04/18 03:11:56;;;;;;;4.57;3.87;;;;;;;6.18;100.00;100016.38;5071439;28;20289;-75
2022/04/18 03:14:23;;;;;;;9.10;7.30;;;;;;;6.30;100.00;100009.03;5070733;28;20685;-75
2022/04/18 03:16:50;;;;;;;8.20;6.43;;;;;;;6.24;100.00;100008.81;5069821;28;20211;-75
2022/04/18 03:19:18;;;;;;;6.50;5.60;;;;;;;6.18;100.00;100018.06;5035529;28;20203;-75
2022/04/18 03:21:45;;;;;;;8.20;6.43;;;;;;;6.32;100.00;100014.19;5071060;28;20572;-75
2022/04/18 03:24:12;;;;;;;9.73;6.73;;;;;;;6.40;100.00;100008.47;5051951;28;20226;-74
2022/04/18 03:26:39;;;;;;;7.70;6.30;;;;;;;6.21;100.00;100007.84;5070348;28;20555;-74
2022/04/18 03:29:06;;;;;;;8.17;6.47;;;;;;;6.23;100.00;100017.41;5070657;28;20542;-76
2022/04/18 03:31:33;;;;;;;10.60;6.77;;;;;;;6.23;100.00;100016.50;5071119;28;20584;-76
2022/04/18 03:33:59;;;;;;;11.03;7.50;;;;;;;6.23;100.00;100014.81;5071315;28;20238;-74
2022/04/18 03:41:55;;;;;;;8.67;7.17;;;;;;;6.08;100.00;100011.75;5057818;28;20789;-75
2022/04/18 03:44:22;;;;;;;9.50;7.73;;;;;;;6.18;100.00;100018.06;5050912;28;20728;-73
2022/04/18 03:46:49;;;;;;;11.33;7.67;;;;;;;6.33;100.00;100010.81;5017756;28;20586;-74
2022/04/18 03:49:16;;;;;;;10.00;7.30;;;;;;;6.36;100.00;100016.94;5019269;28;20663;-74
2022/04/18 03:51:44;;;;;;;9.50;6.23;;;;;;;6.24;100.00;100003.66;5070810;28;20655;-75
2022/04/18 03:54:11;;;;;;;7.87;6.57;;;;;;;6.24;100.00;99997.69;5070716;28;20213;-74
2022/04/18 03:56:38;;;;;;;6.47;5.87;;;;;;;6.22;100.00;100005.34;5070634;28;20210;-75
2022/04/18 03:59:04;;;;;;;8.63;7.27;;;;;;;6.18;100.00;100018.94;5070872;28;20210;-75
2022/04/18 04:01:31;;;;;;;9.00;7.00;;;;;;;6.15;100.00;100024.00;5070908;28;20207;-76
2022/04/18 04:03:58;;;;;;;8.57;6.13;;;;;;;6.15;100.00;100026.56;5070051;28;20292;-76
2022/04/18 04:06:25;;;;;;;8.93;6.93;;;;;;;6.23;100.00;100025.13;5070161;28;20202;-75
2022/04/18 04:08:53;;;;;;;9.80;6.73;;;;;;;6.39;100.00;100026.44;5069962;28;20577;-77
2022/04/18 04:11:20;;;;;;;11.00;7.23;;;;;;;6.25;100.00;100008.00;5069815;28;20198;-75
2022/04/18 04:13:46;;;;;;;9.80;8.30;;;;;;;6.28;100.00;100017.50;5070726;28;20638;-75
2022/04/18 04:16:13;;;;;;;6.93;6.30;;;;;;;6.24;100.00;100013.97;5070724;28;20198;-75
2022/04/18 04:18:40;;;;;;;9.57;6.57;;;;;;;6.32;100.00;100016.78;5070485;28;20202;-77
2022/04/18 04:21:07;;;;;;;8.23;7.13;;;;;;;6.22;100.00;100007.91;5070538;28;20203;-77
2022/04/18 04:23:33;;;;;;;10.67;9.07;;;;;;;6.40;100.00;100005.91;5066652;28;20228;-75
2022/04/18 04:26:02;;;;;;;10.50;6.07;;;;;;;6.34;100.00;100008.31;5050266;28;20205;-76
2022/04/18 04:28:28;;;;;;;10.03;7.73;;;;;;;6.46;100.00;100000.94;5050702;28;20202;-75
2022/04/18 04:30:55;;;;;;;18.13;12.00;;;;;;;6.58;100.00;99995.28;5062097;28;20191;-76
2022/04/18 04:33:22;;;;;;;13.37;10.30;;;;;;;6.70;100.00;99999.91;5070191;28;20205;-76
2022/04/18 04:35:49;;;;;;;13.23;9.60;;;;;;;6.66;100.00;99988.66;5069393;28;20213;-75
2022/04/18 04:38:15;;;;;;;12.37;8.90;;;;;;;6.68;100.00;99986.09;5069683;28;20825;-76
2022/04/18 04:40:42;;;;;;;8.53;7.53;;;;;;;6.82;100.00;100000.25;5066674;28;20199;-76
2022/04/18 04:43:12;;;;;;;10.60;7.83;;;;;;;6.86;100.00;100002.09;5069651;28;20221;-75
2022/04/18 04:45:39;;;;;;;11.90;9.37;;;;;;;6.83;100.00;99996.84;5070523;28;20217;-76
2022/04/18 04:48:06;;;;;;;11.27;8.10;;;;;;;6.78;100.00;99983.81;5070066;28;20210;-76
2022/04/18 04:50:32;;;;;;;8.73;6.63;;;;;;;6.64;100.00;100002.28;5018592;28;20195;-76
2022/04/18 04:53:00;;;;;;;10.53;8.40;;;;;;;6.65;100.00;99997.19;5070703;28;20206;-76
2022/04/18 04:55:27;;;;;;;9.93;8.63;;;;;;;6.88;100.00;99987.56;5073942;28;20611;-76
2022/04/18 04:57:54;;;;;;;43.83;22.77;;;;;;;7.14;100.00;99986.53;5074136;28;20194;-82
2022/04/18 05:00:22;;;;;;;10.40;8.40;;;;;;;7.49;100.00;99980.59;5072910;28;20641;-75
2022/04/18 05:02:49;;;;;;;11.60;8.70;;;;;;;7.28;100.00;99995.53;5053902;28;20580;-76
2022/04/18 05:05:16;;;;;;;10.57;7.43;;;;;;;7.42;100.00;99993.28;5053511;28;20289;-76
2022/04/18 05:07:43;;;;;;;12.60;9.60;;;;;;;7.47;100.00;99995.19;5053769;28;20664;-76
2022/04/18 05:10:10;;;;;;;36.03;21.10;;;;;;;8.99;100.00;99957.31;5053975;28;20222;-77
2022/04/18 05:12:36;;;;;;;12.40;9.57;;;;;;;8.56;100.00;99949.56;5054164;28;20253;-76
2022/04/18 05:15:03;;;;;;;24.38;15.18;;;;;;;8.37;100.00;99980.19;5053823;28;20199;-77
2022/04/18 05:17:32;;;;;;;11.50;8.33;;;;;;;8.32;100.00;99989.53;5053749;28;20291;-78
2022/04/18 05:19:59;;;;;;;23.10;13.57;;;;;;;8.06;100.00;99985.47;5018597;28;20239;-77
2022/04/18 05:22:26;;;;;;;12.47;8.97;;;;;;;7.89;100.00;99984.16;5053965;28;20192;-78
2022/04/18 05:24:55;;;;;;;9.47;7.43;;;;;;;7.78;100.00;100014.00;5053640;28;20250;-77
2022/04/18 05:27:22;;;;;;;7.70;6.00;;;;;;;7.45;100.00;100009.72;5053664;28;20291;-78
2022/04/18 05:29:49;;;;;;;7.23;6.20;;;;;;;7.55;100.00;100012.56;5053433;28;20199;-76
2022/04/18 05:32:16;;;;;;;11.03;8.17;;;;;;;7.64;100.00;100002.47;5093144;28;20222;-78
2022/04/18 05:34:44;;;;;;;8.00;7.20;;;;;;;7.81;100.00;100007.22;5093859;28;20718;-77
2022/04/18 05:37:11;;;;;;;8.93;7.87;;;;;;;7.04;100.00;99940.72;5089921;28;20679;-78
2022/04/18 05:39:38;;;;;;;11.17;8.60;;;;;;;7.58;100.00;99997.16;5073306;28;20198;-80
2022/04/18 05:42:07;;;;;;;16.40;10.80;;;;;;;7.72;100.00;99957.09;5073046;28;20195;-79
2022/04/18 05:44:35;;;;;;;16.90;10.70;;;;;;;7.73;100.00;99992.38;5073037;28;20226;-79
2022/04/18 05:47:02;;;;;;;11.13;8.40;;;;;;;7.49;100.00;100011.56;5072963;28;20203;-79
2022/04/18 05:49:28;;;;;;;8.87;8.07;;;;;;;7.49;100.00;100002.97;5073318;28;20218;-78
2022/04/18 05:51:56;;;;;;;10.40;9.10;;;;;;;7.62;100.00;100015.34;5073013;28;20206;-76
2022/04/18 05:54:23;;;;;;;18.53;11.00;;;;;;;7.46;100.00;100008.91;5073016;28;20214;-77
2022/04/18 05:56:50;;;;;;;25.53;14.73;;;;;;;7.42;100.00;100001.91;5072910;28;20697;-77
2022/04/18 05:59:17;;;;;;;18.50;11.73;;;;;;;7.74;100.00;100015.63;5072999;28;20199;-75
2022/04/18 06:01:43;;;;;;;18.07;12.13;;;;;;;7.91;100.00;100016.94;5072620;28;20839;-77
2022/04/18 06:04:10;;;;;;;15.80;9.93;;;;;;;7.62;100.00;100010.19;5072041;28;20296;-75
2022/04/18 06:06:37;;;;;;;14.53;9.87;;;;;;;7.59;100.00;100022.13;5071777;28;20207;-74
2022/04/18 06:09:05;;;;;;;13.53;9.93;;;;;;;7.97;100.00;100013.63;5020559;28;20648;-75
2022/04/18 06:11:32;;;;;;;9.17;7.20;;;;;;;7.80;100.00;100017.50;5072822;28;20233;-74
2022/04/18 06:13:59;;;;;;;13.37;7.50;;;;;;;7.99;100.00;100022.25;5072363;28;20206;-74
2022/04/18 06:16:25;;;;;;;8.23;6.50;;;;;;;8.32;100.00;100028.28;5072469;28;20191;-75
2022/04/18 06:18:52;;;;;;;9.87;7.40;;;;;;;8.42;100.00;99999.22;5072388;28;20211;-76
2022/04/18 06:21:19;;;;;;;7.03;6.17;;;;;;;8.25;100.00;100031.53;5072521;28;20226;-76
2022/04/18 06:23:46;;;;;;;8.90;6.37;;;;;;;8.14;100.00;100012.31;5071989;28;20219;-75
2022/04/18 06:26:14;;;;;;;10.10;8.33;;;;;;;8.41;100.00;100033.66;5072444;28;20202;-74
2022/04/18 06:28:41;;;;;;;7.93;6.25;;;;;;;8.22;100.00;100007.34;5072159;28;20229;-76
2022/04/18 06:31:08;;;;;;;10.90;7.90;;;;;;;8.48;100.00;100028.63;5072554;28;20207;-83
2022/04/18 06:33:35;;;;;;;7.07;5.33;;;;;;;8.54;100.00;100028.75;5065098;28;20207;-76
2022/04/18 06:36:02;;;;;;;10.77;6.87;;;;;;;8.71;100.00;100032.56;5041609;28;20289;-76
2022/04/18 06:38:29;;;;;;;14.33;8.47;;;;;;;8.92;100.00;100033.03;5090159;28;20202;-76
2022/04/18 06:40:57;;;;;;;8.70;6.22;;;;;;;8.83;100.00;100038.91;5090684;28;20305;-76
2022/04/18 06:43:26;;;;;;;11.70;6.55;;;;;;;9.22;100.00;100028.47;5091257;28;20225;-76
2022/04/18 06:45:52;;;;;;;15.65;8.75;;;;;;;9.20;100.00;100014.66;5090468;28;20229;-76
2022/04/18 06:48:19;;;;;;;10.35;7.07;;;;;;;9.70;100.00;100025.91;5091200;28;20544;-76
2022/04/18 06:50:46;;;;;;;11.48;8.50;;;;;;;10.17;100.00;100029.31;5038861;28;20731;-75
2022/04/18 06:53:13;;;;;;;8.35;6.82;;;;;;;10.56;100.00;100031.63;5091043;28;20268;-76
2022/04/18 06:58:26;;;;;;;19.48;10.90;;;;;;;10.85;100.00;100039.81;5091787;28;20229;-77
2022/04/18 07:00:53;;;;;;;9.68;7.70;;;;;;;10.94;100.00;100037.34;5055696;28;20194;-76
2022/04/18 07:03:20;;;;;;;6.72;6.07;;;;;;;10.63;100.00;100037.78;5091271;28;20206;-76
2022/04/18 07:05:46;;;;;;;10.07;7.03;;;;;;;10.65;100.00;100049.03;5091533;28;20237;-77
2022/04/18 07:08:13;;;;;;;9.27;6.78;;;;;;;10.20;100.00;99958.56;5091157;28;20632;-75
2022/04/18 07:10:40;;;;;;;5.70;5.18;;;;;;;10.01;100.00;100037.66;5039115;28;20210;-76
2022/04/18 07:13:07;;;;;;;13.20;8.07;;;;;;;10.51;100.00;100009.97;5090904;28;20613;-78
2022/04/18 07:15:35;;;;;;;13.32;7.43;;;;;;;10.91;100.00;100042.50;5055523;28;20221;-76
2022/04/18 07:18:03;;;;;;;10.27;7.20;;;;;;;10.81;100.00;100043.19;5090862;28;20210;-77
2022/04/18 07:20:30;;;;;;;9.45;7.55;;;;;;;11.17;100.00;100047.97;5091103;28;20297;-76
2022/04/18 07:22:57;;;;;;;11.50;8.00;;;;;;;11.66;100.00;100049.41;5087121;28;20198;-76
2022/04/18 07:25:23;;;;;;;13.73;10.10;;;;;;;11.93;100.00;100050.56;5070864;28;20222;-76
2022/04/18 07:27:50;;;;;;;8.65;6.63;;;;;;;11.90;100.00;100044.47;5070937;28;20217;-75
2022/04/18 07:30:17;;;;;;;6.15;4.63;;;;;;;12.48;100.00;100039.75;5035893;28;20205;-75
2022/04/18 07:32:45;;;;;;;6.10;4.47;;;;;;;11.67;100.00;100044.22;5070977;28;20643;-74
2022/04/18 07:35:13;;;;;;;4.85;4.45;;;;;;;12.06;100.00;100056.72;5019269;28;20235;-75
2022/04/18 07:38:48;;;;;;;9.10;6.72;;;;;;;12.44;99.80;100054.44;5070778;28;20624;-75
2022/04/18 07:40:29;;;;;;;4.07;3.67;;;;;;;12.12;92.92;100046.41;5070979;28;20217;-75
2022/04/18 07:42:56;;;;;;;4.25;3.08;;;;;;;12.40;86.13;100055.28;5070575;28;20198;-76
2022/04/18 07:45:23;;;;;;;4.18;3.88;;;;;;;12.55;86.91;100038.91;5070798;28;20230;-75
2022/04/18 07:47:53;;;;;;;4.25;3.40;;;;;;;12.68;81.18;100032.91;5070724;28;20192;-75
2022/04/18 07:50:20;;;;;;;2.90;2.70;;;;;;;11.91;87.60;100051.44;5018892;28;20226;-76
2022/04/18 07:53:06;;;;;;;8.00;5.10;;;;;;;12.46;99.11;100049.25;5070674;28;20271;-77
2022/04/18 07:55:33;;;;;;;3.10;2.90;;;;;;;11.52;85.86;100061.38;5070646;28;20250;-77
2022/04/18 07:58:00;;;;;;;3.30;3.00;;;;;;;10.97;83.39;100021.81;5070424;28;20190;-78
2022/04/18 08:00:27;;;;;;;5.05;2.63;;;;;;;10.62;89.73;100052.47;5070589;28;20642;-78
2022/04/18 08:02:55;;;;;;;3.30;3.03;;;;;;;9.91;94.17;100048.72;5070703;28;20207;-77
2022/04/18 08:05:22;;;;;;;3.28;2.97;;;;;;;10.42;89.39;100054.75;5046680;28;20945;-78
2022/04/18 08:07:48;;;;;;;3.58;3.20;;;;;;;10.41;93.77;100053.03;5090955;28;20604;-77
2022/04/18 08:10:15;;;;;;;3.33;3.03;;;;;;;10.49;85.66;100050.53;5090721;28;20197;-77
2022/04/18 08:12:42;;;;;;;2.42;2.22;;;;;;;10.23;86.72;100059.66;5055295;28;20626;-77
2022/04/18 08:15:09;;;;;;;3.10;2.80;;;;;;;9.83;93.34;100050.31;5090963;28;20205;-79
2022/04/18 08:17:36;;;;;;;3.15;2.90;;;;;;;9.94;88.89;100047.06;5090879;28;20201;-78
2022/04/18 08:20:05;;;;;;;3.42;3.05;;;;;;;10.12;92.65;100054.25;5090645;28;20205;-79
2022/04/18 08:22:32;;;;;;;3.50;2.90;;;;;;;10.24;91.69;100048.41;5090569;28;20297;-78
2022/04/18 08:24:59;;;;;;;5.28;3.03;;;;;;;10.18;88.16;100031.06;5090302;28;20225;-77
2022/04/18 08:27:26;;;;;;;3.63;3.30;;;;;;;10.47;85.73;100046.19;5054806;28;20201;-76
2022/04/18 08:29:52;;;;;;;4.65;2.22;;;;;;;10.65;84.63;100041.25;5057741;28;20198;-76
2022/04/18 08:32:19;;;;;;;6.32;2.70;;;;;;;10.25;81.09;100012.19;5094830;28;20202;-76
2022/04/18 08:34:46;;;;;;;2.17;2.08;;;;;;;9.84;91.87;100029.63;5042336;28;20230;-76
2022/04/18 08:37:15;;;;;;;4.60;2.58;;;;;;;9.67;91.18;100009.44;5094352;28;20654;-77
2022/04/18 08:39:42;;;;;;;11.60;6.20;;;;;;;10.19;91.48;100045.78;5094511;28;20193;-77
2022/04/18 08:42:11;;;;;;;2.92;2.70;;;;;;;10.24;86.71;100044.09;5094164;28;20321;-77
2022/04/18 08:44:39;;;;;;;2.50;2.40;;;;;;;10.62;78.62;100018.78;5094426;28;20221;-76
2022/04/18 08:47:05;;;;;;;6.53;3.97;;;;;;;10.28;83.31;100043.31;5093839;28;20195;-76
2022/04/18 08:55:04;;;;;;;3.38;2.28;;;;;;;10.02;80.71;99990.22;5094001;28;20290;-77
2022/04/18 08:57:32;;;;;;;7.20;2.33;;;;;;;9.87;87.15;100052.97;5058464;28;20202;-77
2022/04/18 08:59:58;;;;;;;2.67;2.47;;;;;;;10.09;79.67;100045.56;5093707;28;20628;-76
2022/04/18 09:02:27;;;;;;;3.25;2.95;;;;;;;10.54;79.77;100041.13;5093865;28;20206;-77
2022/04/18 09:04:55;;;;;;;5.50;3.05;;;;;;;10.91;76.75;100024.34;5093699;28;20233;-78
2022/04/18 09:07:24;;;;;;;3.00;2.80;;;;;;;10.97;73.87;100050.34;5093962;28;20213;-79
2022/04/18 09:09:55;;;;;;;3.67;3.40;;;;;;;11.77;75.41;100053.88;5093880;28;20288;-79
2022/04/18 09:12:27;;;;;;;2.97;2.78;;;;;;;11.52;74.47;100056.19;5093533;28;20302;-78
2022/04/18 09:14:54;;;;;;;2.88;2.60;;;;;;;10.59;73.95;100025.63;5093901;28;20216;-77
2022/04/18 09:17:32;;;;;;;2.45;2.28;;;;;;;11.02;78.00;100048.69;5093801;28;20198;-80
2022/04/18 09:20:06;;;;;;;2.63;2.42;;;;;;;11.04;74.22;100033.13;5093790;28;20197;-78
2022/04/18 09:22:40;;;;;;;3.33;2.85;;;;;;;11.43;75.99;100044.84;5092869;28;20208;-78
2022/04/18 09:25:13;;;;;;;3.60;3.30;;;;;;;11.99;74.19;100028.97;5092823;28;20232;-79
2022/04/18 09:27:40;;;;;;;2.90;2.70;;;;;;;12.68;68.82;100045.94;5092914;28;20206;-77
2022/04/18 09:30:08;;;;;;;2.50;2.30;;;;;;;12.48;68.53;100038.00;5092713;28;20206;-78
2022/04/18 09:32:35;;;;;;;2.35;2.25;;;;;;;11.37;73.43;100024.03;5092828;28;20202;-76
2022/04/18 09:35:04;;;;;;;3.15;2.85;;;;;;;10.97;74.94;100045.16;5093031;28;20656;-78
2022/04/18 09:37:31;;;;;;;5.22;2.92;;;;;;;11.65;76.38;100047.66;5092598;28;20741;-76
2022/04/18 09:40:00;;;;;;;2.42;2.33;;;;;;;11.26;77.44;100042.91;5091748;28;20210;-76
2022/04/18 09:42:29;;;;;;;2.85;2.65;;;;;;;11.70;79.81;100040.81;5092400;28;20209;-77
2022/04/18 09:44:56;;;;;;;2.20;2.10;;;;;;;11.18;72.25;100027.25;5092658;28;20230;-80
2022/04/18 09:47:25;;;;;;;1.80;1.70;;;;;;;10.69;77.34;100038.75;5092448;28;20285;-77
2022/04/18 09:49:52;;;;;;;2.80;2.60;;;;;;;11.48;75.56;100024.13;5057514;28;20651;-77
2022/04/18 09:52:20;;;;;;;3.28;2.35;;;;;;;11.29;72.04;100036.03;5092471;28;20198;-78
2022/04/18 09:54:51;;;;;;;1.80;1.70;;;;;;;10.57;77.16;100040.28;5092542;28;20198;-78
2022/04/18 09:57:23;;;;;;;5.35;2.40;;;;;;;10.66;81.66;100033.53;5092457;28;20249;-78
2022/04/18 09:59:51;;;;;;;3.63;3.25;;;;;;;11.53;77.53;100029.34;5092794;28;20284;-77
2022/04/18 10:02:19;;;;;;;3.85;2.33;;;;;;;10.83;73.94;100028.53;5092253;28;20290;-77
2022/04/18 10:04:46;;;;;;;2.60;2.40;;;;;;;11.10;78.82;100026.28;5092207;28;20194;-77
2022/04/18 10:07:14;;;;;;;2.70;2.58;;;;;;;11.16;75.72;100000.44;5056625;28;20198;-77
2022/04/18 10:09:42;;;;;;;2.08;1.88;;;;;;;11.49;69.03;100027.56;5091903;28;20263;-76
2022/04/18 10:12:09;;;;;;;2.72;2.50;;;;;;;11.69;64.20;100033.84;5092028;28;20678;-77
2022/04/18 10:14:39;;;;;;;3.10;2.30;;;;;;;11.85;65.67;100033.16;5092057;28;20198;-77
2022/04/18 10:17:08;;;;;;;2.63;2.42;;;;;;;12.05;63.70;100036.81;5092123;28;20261;-79
2022/04/18 10:19:52;;;;;;;2.35;1.98;;;;;;;10.77;63.30;100031.06;5091865;28;20191;-80
2022/04/18 10:22:55;;;;;;;1.90;1.80;;;;;;;10.87;60.51;100033.81;5091938;28;20201;-78
2022/04/18 10:25:37;;;;;;;4.53;2.10;;;;;;;10.94;56.34;100029.56;4989909;28;20229;-81
2022/04/18 10:28:09;;;;;;;1.95;1.85;;;;;;;11.07;56.44;100031.44;4989925;28;20208;-79
2022/04/18 10:30:45;;;;;;;1.85;1.75;;;;;;;10.36;58.39;100023.56;4989677;28;20784;-80
2022/04/18 10:33:13;;;;;;;1.80;1.70;;;;;;;10.23;56.85;100037.22;4941103;28;20197;-78
2022/04/18 10:35:48;;;;;;;1.98;1.88;;;;;;;10.51;57.55;100029.84;4989517;28;20239;-76
2022/04/18 10:38:15;;;;;;;2.00;1.90;;;;;;;10.76;56.48;100037.09;4989651;28;20201;-80
2022/04/18 10:40:42;;;;;;;2.47;2.35;;;;;;;11.01;58.67;100036.56;4989666;28;20619;-78
2022/04/18 10:43:10;;;;;;;1.90;1.80;;;;;;;10.53;58.71;100012.56;4989343;28;20593;-77
2022/04/18 10:45:39;;;;;;;2.67;2.47;;;;;;;10.24;60.62;100001.78;4989559;28;20315;-77
2022/04/18 10:48:11;;;;;;;3.08;2.78;;;;;;;10.48;66.65;100027.19;4989402;28;20201;-79
2022/04/18 10:50:43;;;;;;;4.50;2.92;;;;;;;10.70;61.20;100029.25;4989683;28;20209;-78
2022/04/18 10:53:20;;;;;;;3.45;2.60;;;;;;;10.68;61.89;100015.38;4988869;28;20639;-79
2022/04/18 10:56:15;;;;;;;2.85;2.65;;;;;;;10.76;63.63;100018.94;4989445;28;20208;-80
2022/04/18 10:58:44;;;;;;;4.70;3.35;;;;;;;10.66;80.35;100001.53;4989418;28;20697;-78
2022/04/18 11:01:15;;;;;;;3.13;2.83;;;;;;;10.59;65.13;100017.84;5000415;28;20201;-79
2022/04/18 11:04:00;;;;;;;5.45;3.28;;;;;;;11.09;89.64;100011.59;5090856;28;20749;-79
2022/04/18 11:06:50;;;;;;;1.83;1.73;;;;;;;10.50;64.66;100020.31;5091045;28;20290;-77
2022/04/18 11:09:21;;;;;;;2.67;2.47;;;;;;;10.43;66.51;100019.34;5091067;28;20273;-77
2022/04/18 11:11:54;;;;;;;2.85;2.15;;;;;;;10.04;64.98;100014.41;5090927;28;20602;-77
2022/04/18 11:14:23;;;;;;;1.90;1.80;;;;;;;10.24;65.23;100023.38;5090576;28;20202;-78
2022/04/18 11:17:01;;;;;;;2.83;2.05;;;;;;;10.20;66.72;100021.59;5090940;28;20205;-77
2022/04/18 11:19:30;;;;;;;4.03;2.33;;;;;;;9.92;68.89;100011.59;5090552;28;20710;-78
2022/04/18 11:22:07;;;;;;;2.65;2.45;;;;;;;10.01;69.72;100011.78;5090813;28;20209;-77
2022/04/18 11:24:36;;;;;;;2.30;2.20;;;;;;;10.11;67.06;100017.97;5090520;28;20670;-77
2022/04/18 11:27:05;;;;;;;3.20;2.13;;;;;;;10.37;64.13;100012.38;5090654;28;20222;-79
2022/04/18 11:29:33;;;;;;;2.08;1.98;;;;;;;10.51;66.19;100006.50;5090915;28;20205;-78
2022/04/18 11:32:01;;;;;;;2.47;2.30;;;;;;;10.65;64.74;100002.38;5054875;28;20187;-78
2022/04/18 11:34:30;;;;;;;2.50;2.28;;;;;;;10.91;62.80;100008.78;5054894;28;20225;-78
2022/04/18 11:36:58;;;;;;;2.17;2.08;;;;;;;10.67;63.18;99983.38;5090659;28;20194;-77
2022/04/18 11:39:25;;;;;;;2.08;1.95;;;;;;;11.15;62.75;100003.88;5090798;28;20209;-78
2022/04/18 11:42:02;;;;;;;2.35;2.25;;;;;;;10.94;62.04;100003.63;5090467;28;20256;-79
2022/04/18 11:44:39;;;;;;;3.20;3.00;;;;;;;10.28;61.52;99921.53;5055017;28;20209;-78
2022/04/18 11:47:10;;;;;;;4.55;3.58;;;;;;;10.87;63.73;99983.66;5091372;28;20253;-78
2022/04/18 11:49:37;;;;;;;4.22;2.58;;;;;;;10.78;63.29;100001.66;5091154;28;20263;-78
2022/04/18 11:52:05;;;;;;;2.50;2.40;;;;;;;11.05;64.06;99996.84;5090381;28;20198;-78